This is the latest recevied weather packets stored in our database for station/object W6ORV. If no packets are shown the sender has not sent any weather packets the latest 10 day(s).
| Time | Temp. | Humidity | Pressure | Rain* | Wind** | Luminosity | Snow |
|---|---|---|---|---|---|---|---|
| 1777757093 | 22.78° C | 57% | 4296.6 hPa | 0 mm | - | 724 W/m² | - |
| 1777756790 | 22.22° C | 59% | 4297 hPa | 0 mm | - | 735 W/m² | - |
| 1777756486 | 21.67° C | 61% | 4297 hPa | 0 mm | - | 732 W/m² | - |
| 1777756183 | 22.22° C | 59% | 4296.9 hPa | 0 mm | - | 718 W/m² | - |
| 1777755880 | 21.67° C | 60% | 4297 hPa | 0 mm | - | 746 W/m² | - |
| 1777755577 | 21.67° C | 62% | 4297.1 hPa | 0 mm | - | 723 W/m² | - |
| 1777755273 | 21.67° C | 61% | 4296.8 hPa | 0 mm | - | 707 W/m² | - |
| 1777754971 | 21.11° C | 64% | 4297.1 hPa | 0 mm | - | 693 W/m² | - |
| 1777754063 | 20.56° C | 65% | 4297.4 hPa | 0 mm | - | 593 W/m² | - |
| 1777753758 | 20° C | 66% | 4297.7 hPa | 0 mm | - | 742 W/m² | - |
| 1777753455 | 20.56° C | 64% | 4297.5 hPa | 0 mm | - | 751 W/m² | - |
| 1777753154 | 20.56° C | 65% | 4297.5 hPa | 0 mm | - | 767 W/m² | - |
| 1777752849 | 20.56° C | 66% | 4297.9 hPa | 0 mm | - | 774 W/m² | - |
| 1777752241 | 20.56° C | 65% | 4297.9 hPa | 0 mm | - | 759 W/m² | - |
| 1777751940 | 20.56° C | 66% | 4297.9 hPa | 0 mm | - | 693 W/m² | - |
| 1777751333 | 20.56° C | 65% | 4298.2 hPa | 0 mm | - | 790 W/m² | - |
| 1777751030 | 20.56° C | 67% | 4298.3 hPa | 0 mm | - | 788 W/m² | - |
| 1777750725 | 20° C | 69% | 4298.4 hPa | 0 mm | - | 793 W/m² | - |
| 1777750118 | 19.44° C | 70% | 4298.4 hPa | 0 mm | - | 783 W/m² | - |
| 1777749513 | 19.44° C | 71% | 4298.6 hPa | 0 mm | - | 797 W/m² | - |
| 1777748908 | 19.44° C | 72% | 4298.7 hPa | 0 mm | - | 799 W/m² | - |
| 1777745870 | 16.67° C | 77% | 4299.1 hPa | 0 mm | - | 783 W/m² | - |
| 1777743449 | 13.89° C | 88% | 4299.3 hPa | 0 mm | - | 718 W/m² | - |
| 1777743147 | 13.33° C | 92% | 4299.3 hPa | 0 mm | - | 765 W/m² | - |
| 1777742845 | 12.78° C | 95% | 4299.1 hPa | 0 mm | - | 439 W/m² | - |
* Rain latest hour (hover to see other rain measurements)
** Current wind speed in m/s (hover to see current wind gust speed)